createdAt,value
2023-09-20T00:02:14.057Z,17.80
2023-09-20T00:04:43.474Z,17.80
2023-09-20T00:07:11.275Z,17.80
2023-09-20T00:09:39.682Z,17.70
2023-09-20T00:12:07.905Z,17.70
2023-09-20T00:14:35.562Z,17.70
2023-09-20T00:17:03.127Z,17.60
2023-09-20T00:19:30.483Z,17.60
2023-09-20T00:21:57.760Z,17.60
2023-09-20T00:24:25.039Z,17.60
2023-09-20T00:26:52.374Z,17.60
2023-09-20T00:29:19.989Z,17.60
2023-09-20T00:31:47.383Z,17.50
2023-09-20T00:34:14.851Z,17.50
2023-09-20T00:36:42.141Z,17.40
2023-09-20T00:39:11.079Z,17.40
2023-09-20T00:41:38.615Z,17.40
2023-09-20T00:44:06.172Z,17.40
2023-09-20T00:46:33.926Z,17.40
2023-09-20T00:49:01.912Z,17.40
2023-09-20T00:51:29.333Z,17.50
2023-09-20T00:53:59.484Z,17.50
2023-09-20T00:56:27.531Z,17.60
2023-09-20T00:58:57.230Z,17.60
2023-09-20T01:01:28.351Z,17.70
2023-09-20T01:03:57.338Z,17.70
2023-09-20T01:06:28.171Z,17.70
2023-09-20T01:08:56.878Z,17.70
2023-09-20T01:11:25.254Z,17.70
2023-09-20T01:13:53.525Z,17.70
2023-09-20T01:16:20.990Z,17.70
2023-09-20T01:18:49.092Z,17.60
2023-09-20T01:21:16.362Z,17.70
2023-09-20T01:23:46.581Z,17.70
2023-09-20T01:26:14.079Z,17.70
2023-09-20T01:28:41.781Z,17.70
2023-09-20T01:31:09.551Z,17.60
2023-09-20T01:33:38.118Z,17.50
2023-09-20T01:36:05.977Z,17.50
2023-09-20T01:38:35.441Z,17.40
2023-09-20T01:41:04.803Z,17.40
2023-09-20T01:43:32.586Z,17.40
2023-09-20T01:46:00.192Z,17.40
2023-09-20T01:48:28.657Z,17.40
2023-09-20T01:50:56.127Z,17.50
2023-09-20T01:53:25.762Z,17.50
2023-09-20T01:55:53.442Z,17.50
2023-09-20T01:58:20.823Z,17.50
2023-09-20T02:00:51.415Z,17.50
2023-09-20T02:03:20.063Z,17.50
2023-09-20T02:05:49.761Z,17.50
2023-09-20T02:08:18.463Z,17.60
2023-09-20T02:10:46.981Z,17.60
2023-09-20T02:13:18.211Z,17.60
2023-09-20T02:15:46.771Z,17.60
2023-09-20T02:18:14.137Z,17.60
2023-09-20T02:20:42.074Z,17.60
2023-09-20T02:23:17.050Z,17.60
2023-09-20T02:25:45.248Z,17.60
2023-09-20T02:28:13.044Z,17.60
2023-09-20T02:30:40.920Z,17.60
2023-09-20T02:33:10.798Z,17.60
2023-09-20T02:35:39.256Z,17.60
2023-09-20T02:38:07.926Z,17.60
2023-09-20T02:40:37.954Z,17.60
2023-09-20T02:43:10.559Z,17.60
2023-09-20T02:45:41.663Z,17.60
2023-09-20T02:48:11.011Z,17.60
2023-09-20T02:50:39.000Z,17.60
2023-09-20T02:53:07.901Z,17.60
2023-09-20T02:55:36.698Z,17.60
2023-09-20T02:58:04.227Z,17.60
2023-09-20T03:00:33.540Z,17.60
2023-09-20T03:03:06.156Z,17.50
2023-09-20T03:05:35.976Z,17.40
2023-09-20T03:08:12.617Z,17.40
2023-09-20T03:10:44.795Z,17.40
2023-09-20T03:13:18.334Z,17.30
2023-09-20T03:15:49.303Z,17.30
2023-09-20T03:18:19.673Z,17.30
2023-09-20T03:20:54.356Z,17.40
2023-09-20T03:23:23.557Z,17.40
2023-09-20T03:25:51.808Z,17.40
2023-09-20T03:28:25.715Z,17.40
2023-09-20T03:30:57.097Z,17.40
2023-09-20T03:33:25.022Z,17.40
2023-09-20T03:35:53.479Z,17.30
2023-09-20T03:38:21.375Z,17.30
2023-09-20T03:40:49.523Z,17.30
2023-09-20T03:43:17.136Z,17.20
2023-09-20T03:45:51.875Z,17.10
2023-09-20T03:48:19.169Z,17.00
2023-09-20T03:50:46.822Z,17.00
2023-09-20T03:53:18.028Z,17.10
2023-09-20T03:55:50.100Z,17.00
2023-09-20T03:58:19.021Z,17.10
2023-09-20T04:00:48.473Z,17.10
2023-09-20T04:03:17.428Z,17.10
2023-09-20T04:05:47.330Z,17.10
2023-09-20T04:08:19.350Z,17.10
2023-09-20T04:10:47.392Z,17.10
2023-09-20T04:13:15.938Z,17.20
2023-09-20T04:15:44.342Z,17.20
2023-09-20T04:18:14.294Z,17.20
2023-09-20T04:20:46.658Z,17.20
2023-09-20T04:23:14.856Z,17.30
2023-09-20T04:25:42.350Z,17.30
2023-09-20T04:28:10.424Z,17.40
2023-09-20T04:30:39.947Z,17.40
2023-09-20T04:33:08.951Z,17.40
2023-09-20T04:35:41.119Z,17.40
2023-09-20T04:38:12.749Z,17.40
2023-09-20T04:40:40.113Z,17.40
2023-09-20T04:43:08.026Z,17.40
2023-09-20T04:45:35.561Z,17.40
2023-09-20T04:48:06.347Z,17.40
2023-09-20T04:50:35.738Z,17.40
2023-09-20T04:53:03.338Z,17.40
2023-09-20T04:55:35.086Z,17.40
2023-09-20T04:58:02.562Z,17.30
2023-09-20T05:00:38.288Z,17.30
2023-09-20T05:03:08.420Z,17.30
2023-09-20T05:05:35.925Z,17.30
2023-09-20T05:08:05.603Z,17.20
2023-09-20T05:10:33.420Z,17.20
2023-09-20T05:13:01.739Z,17.30
2023-09-20T05:15:29.244Z,17.20
2023-09-20T05:17:57.627Z,17.30
2023-09-20T05:20:26.377Z,17.20
2023-09-20T05:22:53.946Z,17.20
2023-09-20T05:25:21.470Z,17.20
2023-09-20T05:27:49.448Z,17.20
2023-09-20T05:30:19.488Z,17.10
2023-09-20T05:32:51.863Z,17.20
2023-09-20T05:35:19.642Z,17.20
2023-09-20T05:37:47.041Z,17.20
2023-09-20T05:40:18.329Z,17.20
2023-09-20T05:42:51.753Z,17.30
2023-09-20T05:45:21.274Z,17.30
2023-09-20T05:47:50.840Z,17.30
2023-09-20T05:50:18.472Z,17.30
2023-09-20T05:52:46.493Z,17.30
2023-09-20T05:55:16.831Z,17.30
2023-09-20T05:57:45.242Z,17.40
2023-09-20T06:00:23.457Z,17.40
2023-09-20T06:02:51.096Z,17.40
2023-09-20T06:05:20.267Z,17.40
2023-09-20T06:07:47.584Z,17.40
2023-09-20T06:10:17.763Z,17.50
2023-09-20T06:12:46.781Z,17.50
2023-09-20T06:15:14.759Z,17.50
2023-09-20T06:17:48.292Z,17.50
2023-09-20T06:20:22.947Z,17.40
2023-09-20T06:22:50.752Z,17.40
2023-09-20T06:25:21.216Z,17.30
2023-09-20T06:27:54.635Z,17.40
2023-09-20T06:30:22.683Z,17.30
2023-09-20T06:32:50.765Z,17.40
2023-09-20T06:35:22.888Z,17.40
2023-09-20T06:37:50.393Z,17.40
2023-09-20T06:40:35.046Z,17.40
2023-09-20T06:43:02.705Z,17.50
2023-09-20T06:45:30.111Z,17.50
2023-09-20T06:47:57.555Z,17.60
2023-09-20T06:50:25.114Z,17.60
2023-09-20T06:52:54.792Z,17.60
2023-09-20T06:55:22.254Z,17.70
2023-09-20T06:57:51.457Z,17.70
2023-09-20T07:00:28.167Z,17.70
2023-09-20T07:02:58.329Z,17.70
2023-09-20T07:05:29.903Z,17.80
2023-09-20T07:08:01.548Z,17.80
2023-09-20T07:10:30.508Z,17.80
2023-09-20T07:12:58.585Z,17.90
2023-09-20T07:15:29.160Z,17.90
2023-09-20T07:18:08.859Z,17.90
2023-09-20T07:20:38.584Z,17.90
2023-09-20T07:23:10.098Z,18.00
2023-09-20T07:25:39.513Z,18.00
2023-09-20T07:28:08.211Z,18.10
2023-09-20T07:30:42.500Z,18.10
2023-09-20T07:33:14.600Z,18.10
2023-09-20T07:35:49.284Z,18.10
2023-09-20T07:38:28.505Z,18.20
2023-09-20T07:41:11.711Z,18.20
2023-09-20T07:43:39.749Z,18.30
2023-09-20T07:46:07.296Z,18.30
2023-09-20T07:48:39.483Z,18.30
2023-09-20T07:51:14.089Z,18.40
2023-09-20T07:53:42.865Z,18.40
2023-09-20T07:56:13.399Z,18.50
2023-09-20T07:58:42.485Z,18.50
2023-09-20T08:01:26.224Z,18.60
2023-09-20T08:03:59.393Z,18.60
2023-09-20T08:06:29.340Z,18.70
2023-09-20T08:08:57.859Z,18.80
2023-09-20T08:11:25.780Z,18.90
2023-09-20T08:13:54.977Z,18.90
2023-09-20T08:16:25.417Z,19.00
2023-09-20T08:19:17.616Z,19.10
2023-09-20T08:21:45.098Z,19.20
2023-09-20T08:24:31.066Z,19.40
2023-09-20T08:27:18.886Z,19.40
2023-09-20T08:30:05.222Z,19.40
2023-09-20T08:32:51.145Z,19.40
2023-09-20T08:35:37.286Z,19.40
2023-09-20T08:38:23.116Z,19.40
2023-09-20T08:41:09.155Z,19.40
2023-09-20T08:43:55.333Z,19.30
2023-09-20T08:46:43.515Z,19.20
2023-09-20T08:49:29.606Z,19.20
2023-09-20T08:52:33.348Z,19.20
2023-09-20T08:55:19.375Z,19.10
2023-09-20T08:58:06.032Z,19.10
2023-09-20T09:00:33.805Z,19.10
2023-09-20T09:03:06.594Z,19.20
2023-09-20T09:05:35.033Z,19.20
2023-09-20T09:08:04.577Z,19.30
2023-09-20T09:10:32.263Z,19.40
2023-09-20T09:12:59.582Z,19.40
2023-09-20T09:15:28.662Z,19.50
2023-09-20T09:17:57.026Z,19.50
2023-09-20T09:20:27.311Z,19.50
2023-09-20T09:22:55.079Z,19.60
2023-09-20T09:25:33.631Z,19.60
2023-09-20T09:28:01.116Z,19.70
2023-09-20T09:30:28.493Z,19.80
2023-09-20T09:32:56.264Z,19.90
2023-09-20T09:35:40.125Z,19.90
2023-09-20T09:38:13.631Z,20.00
2023-09-20T09:40:55.199Z,20.10
2023-09-20T09:43:25.197Z,20.20
2023-09-20T09:46:02.138Z,20.10
2023-09-20T09:48:30.446Z,20.10
2023-09-20T09:51:01.352Z,20.10
2023-09-20T09:53:33.816Z,20.00
2023-09-20T09:56:03.954Z,20.10
2023-09-20T09:58:31.976Z,20.10
2023-09-20T10:01:05.000Z,20.10
2023-09-20T10:03:35.496Z,20.10
2023-09-20T10:06:11.853Z,20.10
2023-09-20T10:08:42.373Z,20.20
2023-09-20T10:11:11.113Z,20.30
2023-09-20T10:13:41.166Z,20.40
2023-09-20T10:16:12.996Z,20.50
2023-09-20T10:18:55.657Z,20.60
2023-09-20T10:21:27.558Z,20.80
2023-09-20T10:23:59.207Z,20.80
2023-09-20T10:26:30.532Z,20.80
2023-09-20T10:29:19.041Z,20.90
2023-09-20T10:31:49.204Z,20.90
2023-09-20T10:34:21.235Z,20.90
2023-09-20T10:36:53.047Z,20.80
2023-09-20T10:39:20.437Z,20.80
2023-09-20T10:41:50.490Z,20.90
2023-09-20T10:44:39.276Z,20.80
2023-09-20T10:47:13.350Z,20.80
2023-09-20T10:49:53.477Z,20.90
2023-09-20T10:52:38.368Z,20.90
2023-09-20T10:55:26.011Z,20.90
2023-09-20T10:57:57.726Z,20.80
2023-09-20T11:00:31.736Z,20.90
2023-09-20T11:02:59.429Z,20.80
2023-09-20T11:05:29.797Z,20.70
2023-09-20T11:07:59.020Z,20.80
2023-09-20T11:10:27.162Z,20.70
2023-09-20T11:12:56.434Z,20.70
2023-09-20T11:15:25.293Z,20.60
2023-09-20T11:17:54.277Z,20.40
2023-09-20T11:20:21.748Z,20.30
2023-09-20T11:22:50.448Z,20.20
2023-09-20T11:25:18.013Z,20.10
2023-09-20T11:27:45.834Z,20.00
2023-09-20T11:30:13.566Z,19.90
2023-09-20T11:32:41.714Z,19.80
2023-09-20T11:35:09.453Z,19.80
2023-09-20T11:37:37.023Z,19.70
2023-09-20T11:40:06.098Z,19.70
2023-09-20T11:42:35.975Z,19.70
2023-09-20T11:45:40.670Z,19.70
2023-09-20T11:48:05.452Z,19.70
2023-09-20T11:50:33.017Z,19.70
2023-09-20T11:53:00.419Z,19.70
2023-09-20T11:55:28.070Z,19.70
2023-09-20T11:57:59.234Z,19.70
2023-09-20T12:00:26.684Z,19.70
2023-09-20T12:02:56.910Z,19.80
2023-09-20T12:05:24.382Z,19.80
2023-09-20T12:08:00.302Z,19.80
2023-09-20T12:10:29.023Z,19.90
2023-09-20T12:12:56.755Z,19.90
2023-09-20T12:15:25.369Z,19.90
2023-09-20T12:17:57.752Z,19.90
2023-09-20T12:20:26.853Z,20.00
2023-09-20T12:22:57.081Z,20.10
2023-09-20T12:25:25.624Z,20.10
2023-09-20T12:27:53.204Z,20.00
2023-09-20T12:30:20.616Z,20.10
2023-09-20T12:32:48.152Z,20.10
2023-09-20T12:35:15.689Z,20.10
2023-09-20T12:37:43.064Z,20.00
2023-09-20T12:40:11.957Z,20.00
2023-09-20T12:42:39.479Z,19.90
2023-09-20T12:45:08.936Z,19.90
2023-09-20T12:47:37.687Z,19.90
2023-09-20T12:50:07.371Z,19.90
2023-09-20T12:52:34.810Z,19.90
2023-09-20T12:55:02.192Z,19.90
2023-09-20T12:57:29.682Z,19.90
2023-09-20T12:59:58.608Z,19.90
2023-09-20T13:02:28.806Z,19.90
2023-09-20T13:05:00.328Z,19.90
2023-09-20T13:07:28.409Z,19.90
2023-09-20T13:09:58.634Z,19.80
2023-09-20T13:12:26.746Z,19.70
2023-09-20T13:14:54.080Z,19.60
2023-09-20T13:17:21.804Z,19.60
2023-09-20T13:19:49.532Z,19.60
2023-09-20T13:22:17.032Z,19.70
2023-09-20T13:24:46.099Z,19.60
2023-09-20T13:27:14.182Z,19.40
2023-09-20T13:29:42.055Z,19.30
2023-09-20T13:32:09.849Z,19.20
2023-09-20T13:34:37.128Z,19.20
2023-09-20T13:37:04.369Z,19.30
2023-09-20T13:39:31.714Z,19.30
2023-09-20T13:41:59.543Z,19.40
2023-09-20T13:44:29.098Z,19.40
2023-09-20T13:46:57.732Z,19.50
2023-09-20T13:49:25.291Z,19.60
2023-09-20T13:51:52.865Z,19.40
2023-09-20T13:54:20.241Z,19.10
2023-09-20T13:56:47.743Z,18.80
2023-09-20T13:59:16.936Z,18.50
2023-09-20T14:01:44.498Z,18.30
2023-09-20T14:04:11.905Z,18.10
2023-09-20T14:06:39.430Z,18.00
2023-09-20T14:09:09.359Z,17.90
2023-09-20T14:11:36.684Z,17.80
2023-09-20T14:14:06.033Z,17.80
2023-09-20T14:16:35.784Z,17.80
2023-09-20T14:19:03.205Z,17.70
2023-09-20T14:21:30.475Z,17.70
2023-09-20T14:23:59.931Z,17.80
2023-09-20T14:26:29.053Z,17.70
2023-09-20T14:28:57.888Z,17.70
2023-09-20T14:31:25.394Z,17.70
2023-09-20T14:33:52.691Z,17.60
2023-09-20T14:36:21.865Z,17.50
2023-09-20T14:38:49.513Z,17.50
2023-09-20T14:41:17.121Z,17.40
2023-09-20T14:43:44.775Z,17.30
2023-09-20T14:46:12.863Z,17.30
2023-09-20T14:48:41.248Z,17.30
2023-09-20T14:51:15.997Z,17.30
2023-09-20T14:53:43.658Z,17.30
2023-09-20T14:56:12.808Z,17.30
2023-09-20T14:58:40.568Z,17.30
2023-09-20T15:01:16.438Z,17.30
2023-09-20T15:03:45.075Z,17.30
2023-09-20T15:06:23.603Z,17.30
2023-09-20T15:08:51.051Z,17.40
2023-09-20T15:11:18.678Z,17.30
2023-09-20T15:13:46.544Z,17.40
2023-09-20T15:16:18.453Z,17.40
2023-09-20T15:18:51.706Z,17.30
2023-09-20T15:21:18.989Z,17.30
2023-09-20T15:23:50.545Z,17.40
2023-09-20T15:26:18.153Z,17.50
2023-09-20T15:28:46.605Z,17.30
2023-09-20T15:31:19.623Z,17.30
2023-09-20T15:33:53.702Z,17.30
2023-09-20T15:36:22.103Z,17.30
2023-09-20T15:38:50.538Z,17.30
2023-09-20T15:41:17.817Z,17.30
2023-09-20T15:43:45.200Z,17.30
2023-09-20T15:46:15.270Z,17.30
2023-09-20T15:48:44.830Z,17.30
2023-09-20T15:51:12.718Z,17.30
2023-09-20T15:53:40.206Z,17.30
2023-09-20T15:56:08.937Z,17.30
2023-09-20T15:58:36.464Z,17.30
2023-09-20T16:01:04.581Z,17.30
2023-09-20T16:03:33.704Z,17.30
2023-09-20T16:06:01.437Z,17.30
2023-09-20T16:08:29.412Z,17.30
2023-09-20T16:10:57.026Z,17.30
2023-09-20T16:13:24.618Z,17.30
2023-09-20T16:15:52.301Z,17.30
2023-09-20T16:18:21.230Z,17.30
2023-09-20T16:20:49.230Z,17.30
2023-09-20T16:23:17.532Z,17.30
2023-09-20T16:25:44.867Z,17.30
2023-09-20T16:28:12.720Z,17.30
2023-09-20T16:30:41.066Z,17.40
2023-09-20T16:33:09.315Z,17.40
2023-09-20T16:35:36.935Z,17.30
2023-09-20T16:38:05.918Z,17.30
2023-09-20T16:40:34.266Z,17.40
2023-09-20T16:43:01.716Z,17.30
2023-09-20T16:45:29.652Z,17.40
2023-09-20T16:47:57.107Z,17.30
2023-09-20T16:50:24.987Z,17.40
2023-09-20T16:52:52.366Z,17.30
2023-09-20T16:55:19.864Z,17.30
2023-09-20T16:57:48.416Z,17.30
2023-09-20T17:00:16.200Z,17.40
2023-09-20T17:02:43.882Z,17.30
2023-09-20T17:05:15.905Z,17.40
2023-09-20T17:07:43.468Z,17.40
2023-09-20T17:10:14.385Z,17.40
2023-09-20T17:12:44.264Z,17.40
2023-09-20T17:15:11.742Z,17.30
2023-09-20T17:17:39.145Z,17.30
2023-09-20T17:20:12.529Z,17.40
2023-09-20T17:22:41.592Z,17.40
2023-09-20T17:25:10.215Z,17.30
2023-09-20T17:27:37.669Z,17.40
2023-09-20T17:30:05.757Z,17.30
2023-09-20T17:32:33.984Z,17.30
2023-09-20T17:35:01.506Z,17.30
2023-09-20T17:37:30.716Z,17.30
2023-09-20T17:39:58.067Z,17.30
2023-09-20T17:42:25.444Z,17.30
2023-09-20T17:44:52.834Z,17.30
2023-09-20T17:47:20.281Z,17.30
2023-09-20T17:49:47.529Z,17.30
2023-09-20T17:52:15.747Z,17.30
2023-09-20T17:54:43.032Z,17.20
2023-09-20T17:57:12.191Z,17.30
2023-09-20T17:59:41.168Z,17.30
2023-09-20T18:02:10.772Z,17.30
2023-09-20T18:04:40.666Z,17.30
2023-09-20T18:07:08.268Z,17.30
2023-09-20T18:09:35.680Z,17.30
2023-09-20T18:12:03.281Z,17.30
2023-09-20T18:14:30.970Z,17.30
2023-09-20T18:16:58.585Z,17.20
2023-09-20T18:19:27.666Z,17.20
2023-09-20T18:21:55.387Z,17.20
2023-09-20T18:24:23.682Z,17.20
2023-09-20T18:26:51.129Z,17.20
2023-09-20T18:29:18.596Z,17.10
2023-09-20T18:31:46.488Z,17.10
2023-09-20T18:34:15.109Z,17.10
2023-09-20T18:36:42.985Z,17.10
2023-09-20T18:39:13.768Z,17.10
2023-09-20T18:41:41.610Z,17.10
2023-09-20T18:44:09.215Z,17.10
2023-09-20T18:46:38.332Z,17.10
2023-09-20T18:49:06.992Z,17.00
2023-09-20T18:51:35.099Z,17.10
2023-09-20T18:54:03.118Z,17.10
2023-09-20T18:56:30.610Z,17.00
2023-09-20T18:58:59.313Z,17.00
2023-09-20T19:01:27.168Z,17.00
2023-09-20T19:03:57.589Z,17.00
2023-09-20T19:06:25.665Z,17.00
2023-09-20T19:08:54.860Z,17.00
2023-09-20T19:11:27.644Z,17.00
2023-09-20T19:13:56.064Z,17.00
2023-09-20T19:16:25.695Z,17.00
2023-09-20T19:19:00.176Z,17.00
2023-09-20T19:21:33.305Z,17.00
2023-09-20T19:24:06.838Z,17.00
2023-09-20T19:26:35.597Z,17.00
2023-09-20T19:29:04.567Z,17.00
2023-09-20T19:31:33.259Z,17.00
2023-09-20T19:34:02.678Z,17.00
2023-09-20T19:36:33.247Z,17.00
2023-09-20T19:39:04.637Z,17.00
2023-09-20T19:41:33.191Z,17.00
2023-09-20T19:44:02.544Z,17.00
2023-09-20T19:46:30.672Z,17.00
2023-09-20T19:49:04.739Z,17.00
2023-09-20T19:51:33.736Z,17.00
2023-09-20T19:54:10.547Z,17.10
2023-09-20T19:56:38.666Z,17.10
2023-09-20T19:59:09.877Z,17.10
2023-09-20T20:01:39.139Z,17.00
2023-09-20T20:04:20.179Z,17.00
2023-09-20T20:06:48.414Z,17.00
2023-09-20T20:09:23.080Z,17.10
2023-09-20T20:11:51.266Z,17.10
2023-09-20T20:14:19.508Z,17.10
2023-09-20T20:16:50.576Z,17.10
2023-09-20T20:19:18.520Z,17.00
2023-09-20T20:21:46.358Z,17.00
2023-09-20T20:24:15.545Z,17.10
2023-09-20T20:26:43.676Z,17.00
2023-09-20T20:29:14.191Z,17.10
2023-09-20T20:31:44.309Z,17.00
2023-09-20T20:34:12.632Z,17.00
2023-09-20T20:36:42.278Z,17.00
2023-09-20T20:39:12.981Z,17.00
2023-09-20T20:41:41.696Z,17.00
2023-09-20T20:44:09.389Z,17.00
2023-09-20T20:46:37.526Z,17.00
2023-09-20T20:49:05.446Z,17.00
2023-09-20T20:51:33.290Z,16.90
2023-09-20T20:54:01.654Z,17.00
2023-09-20T20:56:32.604Z,17.00
2023-09-20T20:59:02.380Z,16.90
2023-09-20T21:01:30.432Z,16.90
2023-09-20T21:03:59.154Z,16.90
2023-09-20T21:06:26.728Z,16.80
2023-09-20T21:08:54.936Z,16.90
2023-09-20T21:11:22.486Z,16.50
2023-09-20T21:13:50.020Z,16.80
2023-09-20T21:16:17.592Z,16.90
2023-09-20T21:18:49.194Z,16.90
2023-09-20T21:21:20.902Z,16.90
2023-09-20T21:23:48.569Z,16.90
2023-09-20T21:26:17.063Z,16.80
2023-09-20T21:28:44.620Z,16.60
2023-09-20T21:31:16.199Z,16.40
2023-09-20T21:33:45.585Z,16.20
2023-09-20T21:36:13.446Z,15.90
2023-09-20T21:38:42.108Z,15.70
2023-09-20T21:41:10.397Z,15.50
2023-09-20T21:43:38.047Z,15.20
2023-09-20T21:46:05.377Z,15.10
2023-09-20T21:48:33.066Z,14.90
2023-09-20T21:51:00.564Z,14.80
2023-09-20T21:53:27.977Z,14.80
2023-09-20T21:55:55.361Z,14.70
2023-09-20T21:58:22.867Z,14.60
2023-09-20T22:00:50.583Z,14.60
2023-09-20T22:03:17.975Z,14.60
2023-09-20T22:05:45.416Z,14.50
2023-09-20T22:08:12.805Z,14.40
2023-09-20T22:10:43.739Z,14.50
2023-09-20T22:13:12.285Z,14.50
2023-09-20T22:15:41.824Z,14.50
2023-09-20T22:18:20.057Z,14.40
2023-09-20T22:20:53.650Z,14.40
2023-09-20T22:23:23.682Z,14.50
2023-09-20T22:25:51.609Z,14.50
2023-09-20T22:28:19.505Z,14.50
2023-09-20T22:30:48.008Z,14.50
2023-09-20T22:33:16.689Z,14.50
2023-09-20T22:35:44.201Z,14.50
2023-09-20T22:38:11.675Z,14.50
2023-09-20T22:40:39.916Z,14.50
2023-09-20T22:43:07.526Z,14.40
2023-09-20T22:45:36.034Z,14.40
2023-09-20T22:48:06.488Z,14.40
2023-09-20T22:50:40.088Z,14.40
2023-09-20T22:53:11.249Z,14.40
2023-09-20T22:55:44.949Z,14.40
2023-09-20T22:58:18.927Z,14.30
2023-09-20T23:00:50.782Z,14.30
2023-09-20T23:03:21.645Z,14.30
2023-09-20T23:05:53.187Z,14.30
2023-09-20T23:08:20.923Z,14.30
2023-09-20T23:10:52.440Z,14.30
2023-09-20T23:13:26.270Z,14.30
2023-09-20T23:15:54.693Z,14.30
2023-09-20T23:18:25.107Z,14.30
2023-09-20T23:20:55.422Z,14.20
2023-09-20T23:23:27.506Z,14.20
2023-09-20T23:25:56.358Z,14.20
2023-09-20T23:28:27.198Z,14.10
2023-09-20T23:31:02.173Z,14.10
2023-09-20T23:33:39.104Z,14.10
2023-09-20T23:36:06.925Z,14.00
2023-09-20T23:38:40.181Z,14.00
2023-09-20T23:41:24.179Z,14.00
2023-09-20T23:43:53.715Z,14.00
2023-09-20T23:46:23.138Z,13.90
2023-09-20T23:48:57.304Z,14.00
2023-09-20T23:51:25.507Z,14.00
2023-09-20T23:53:55.671Z,13.90
2023-09-20T23:56:23.792Z,14.60
2023-09-20T23:58:53.442Z,13.90
